Terminal Aerodrome Forecast
Issued by NWS Greer, SC

Home | Current Version | Previous Version | Text Only | Print | Product List | Glossary On
Versions: 1 2 3 4 5 6 7 8 9 10 11 12 13 14 15 16 17 18 19 20 21 22 23 24 25 26 27 28 29 30 31 32 33 34 35 36 37 38 39 40
000
FTUS42 KGSP 291300 AAA
TAFCLT
TAF AMD
KCLT 291332Z 2914/3012 03004KT P6SM SCT010 SCT070
      TEMPO 2914/2915 OVC010
     FM291600 06005KT P6SM SCT025 BKN070
     FM291800 08005KT P6SM FEW250
     FM300000 12003KT P6SM FEW050=

USA.gov is the U.S. government's official web portal to all federal, state and local government web resources and services.